Time;durP1;ratioP1;P1;durP2;ratioP2;P2;SDS_P1;SDS_P2;PMS_P1;PMS_P2;Temp;Humidity;BMP_temperature;BMP_pressure;BME280_temperature;BME280_humidity;BME280_pressure;Samples;Min_cycle;Max_cycle;Signal;HPM_P1;HPM_P2
2022/03/16 00:00:05;;;;;;;6.35;3.98;;;;;;;4.65;47.70;101048.91;1711242;83;21547;-49
2022/03/16 00:02:34;;;;;;;6.10;4.50;;;;;;;4.63;47.69;101048.03;1704041;83;21985;-49
2022/03/16 00:05:01;;;;;;;6.78;4.50;;;;;;;4.59;47.59;101043.23;1698469;84;21570;-49
2022/03/16 00:07:28;;;;;;;6.50;4.55;;;;;;;4.54;47.65;101040.17;1698395;84;21542;-49
2022/03/16 00:09:56;;;;;;;6.33;4.67;;;;;;;4.52;47.61;101046.70;1698399;84;21441;-49
2022/03/16 00:12:22;;;;;;;7.20;4.22;;;;;;;4.52;47.71;101046.70;1698326;84;21447;-49
2022/03/16 00:14:49;;;;;;;6.30;4.55;;;;;;;4.44;47.64;101042.73;1698306;84;21772;-49
2022/03/16 00:17:16;;;;;;;6.85;4.60;;;;;;;4.42;47.70;101046.20;1698247;84;21448;-50
2022/03/16 00:19:44;;;;;;;8.75;5.20;;;;;;;4.37;47.53;101054.02;1693725;82;21121;-49
2022/03/16 00:22:11;;;;;;;8.43;4.90;;;;;;;4.32;47.66;101048.34;1697637;83;21003;-51
2022/03/16 00:24:38;;;;;;;6.47;4.67;;;;;;;4.27;47.76;101054.37;1697061;84;21590;-50
2022/03/16 00:27:05;;;;;;;8.15;5.62;;;;;;;4.24;47.82;101053.51;1697333;84;21747;-49
2022/03/16 00:29:33;;;;;;;7.00;4.37;;;;;;;4.24;47.96;101054.37;1698548;84;21113;-49
2022/03/16 00:31:59;;;;;;;6.47;4.07;;;;;;;4.22;47.89;101054.80;1698952;84;20975;-49
2022/03/16 00:34:26;;;;;;;7.77;4.70;;;;;;;4.20;47.83;101049.12;1698654;83;21473;-49
2022/03/16 00:36:53;;;;;;;5.97;3.85;;;;;;;4.20;47.82;101053.02;1698634;84;21436;-49
2022/03/16 00:39:20;;;;;;;7.00;4.30;;;;;;;4.16;47.85;101057.34;1698693;84;21767;-49
2022/03/16 00:41:47;;;;;;;7.45;4.33;;;;;;;4.17;47.76;101058.23;1698617;83;21613;-49
2022/03/16 00:44:15;;;;;;;8.73;4.70;;;;;;;4.14;47.71;101056.47;1698510;83;20955;-49
2022/03/16 00:46:44;;;;;;;5.45;3.85;;;;;;;4.12;47.72;101057.33;1695659;82;21496;-49
2022/03/16 00:49:10;;;;;;;5.87;3.92;;;;;;;4.15;47.50;101050.41;1669606;85;21606;-49
2022/03/16 00:51:38;;;;;;;8.58;4.25;;;;;;;4.10;47.50;101056.01;1668887;85;21823;-49
2022/03/16 00:54:05;;;;;;;7.85;4.33;;;;;;;4.09;47.48;101047.34;1670217;85;21672;-49
2022/03/16 00:56:33;;;;;;;7.55;4.30;;;;;;;4.09;47.56;101050.37;1670150;85;21472;-49
2022/03/16 00:59:00;;;;;;;6.92;4.10;;;;;;;4.06;47.49;101049.05;1670509;85;21050;-49
2022/03/16 01:01:28;;;;;;;;;;;;;;;4.03;47.48;101043.81;1672630;85;21074;-49
2022/03/16 01:03:58;;;;;;;6.17;3.85;;;;;;;4.00;47.50;101042.52;1670214;85;20441;-49
2022/03/16 01:06:25;;;;;;;5.37;3.70;;;;;;;3.95;47.42;101035.09;1670051;85;21480;-49
2022/03/16 01:08:51;;;;;;;4.67;3.62;;;;;;;3.92;47.41;101033.36;1670365;85;21054;-49
2022/03/16 01:11:19;;;;;;;;;;;;;;;3.90;47.42;101035.94;1672700;85;21522;-49
2022/03/16 01:13:45;;;;;;;5.33;3.37;;;;;;;3.87;47.49;101040.25;1695563;82;20446;-49
2022/03/16 01:16:14;;;;;;;5.12;3.70;;;;;;;3.87;47.34;101036.34;1696927;84;22200;-49
2022/03/16 01:18:42;;;;;;;6.08;3.20;;;;;;;3.84;47.30;101039.81;1698032;84;21547;-49
2022/03/16 01:21:09;;;;;;;6.25;3.35;;;;;;;3.83;47.23;101036.75;1698508;84;21582;-48
2022/03/16 01:23:38;;;;;;;5.20;3.40;;;;;;;3.82;47.26;101042.80;1698348;84;21753;-48
2022/03/16 01:26:05;;;;;;;4.72;3.45;;;;;;;3.80;47.18;101034.55;1698511;84;21488;-49
2022/03/16 01:28:32;;;;;;;4.73;3.30;;;;;;;3.78;47.17;101034.98;1698603;84;21863;-48
2022/03/16 01:31:01;;;;;;;5.50;3.50;;;;;;;3.75;46.98;101029.73;1698412;84;21571;-49
2022/03/16 01:33:29;;;;;;;5.08;3.22;;;;;;;3.74;46.96;101028.02;1698435;84;21507;-48
2022/03/16 01:35:56;;;;;;;4.47;3.75;;;;;;;3.68;47.01;101032.74;1698683;84;21492;-49
2022/03/16 01:38:22;;;;;;;5.30;3.80;;;;;;;3.67;46.97;101032.28;1691274;82;21531;-49
2022/03/16 01:40:49;;;;;;;6.60;3.30;;;;;;;3.65;46.94;101034.88;1670241;85;21783;-49
2022/03/16 01:43:16;;;;;;;5.70;3.77;;;;;;;3.62;46.88;101033.56;1669385;85;27126;-49
2022/03/16 01:45:47;;;;;;;9.78;3.80;;;;;;;3.61;46.77;101035.71;1670294;85;21582;-49
2022/03/16 01:48:16;;;;;;;6.12;3.58;;;;;;;3.59;46.79;101035.27;1670182;85;21491;-48
2022/03/16 01:50:46;;;;;;;4.50;3.10;;;;;;;3.56;46.79;101031.33;1670352;85;21546;-48
2022/03/16 01:53:14;;;;;;;3.67;3.12;;;;;;;3.54;46.73;101032.61;1670084;85;21816;-48
2022/03/16 01:55:41;;;;;;;6.65;4.08;;;;;;;3.53;46.82;101033.48;1670132;85;21524;-48
2022/03/16 01:58:10;;;;;;;5.58;3.45;;;;;;;3.56;46.69;101040.44;1670211;85;21614;-48
2022/03/16 02:00:40;;;;;;;4.42;2.90;;;;;;;3.53;46.61;101039.99;1670309;85;21018;-48
2022/03/16 02:03:07;;;;;;;5.40;2.58;;;;;;;3.50;46.49;101038.25;1666812;85;21591;-48
2022/03/16 02:05:36;;;;;;;3.42;2.45;;;;;;;3.50;46.41;101038.25;1683604;83;21451;-49
2022/03/16 02:08:05;;;;;;;4.92;2.55;;;;;;;3.48;46.32;101034.77;1690295;83;21593;-49
2022/03/16 02:10:33;;;;;;;4.35;2.47;;;;;;;3.50;46.14;101037.36;1690285;84;21469;-49
2022/03/16 02:13:02;;;;;;;3.72;2.37;;;;;;;3.47;46.07;101037.35;1690598;83;21511;-48
2022/03/16 02:15:30;;;;;;;3.25;2.22;;;;;;;3.46;45.98;101037.75;1690506;84;21496;-48
2022/03/16 02:17:57;;;;;;;2.20;2.00;;;;;;;3.48;45.89;101039.07;1690751;84;21764;-48
2022/03/16 02:20:27;;;;;;;3.20;2.40;;;;;;;3.47;45.70;101042.11;1690939;83;21452;-48
2022/03/16 02:23:00;;;;;;;2.83;2.02;;;;;;;3.50;45.66;101043.85;1690692;83;20963;-49
2022/03/16 02:25:28;;;;;;;3.37;1.92;;;;;;;3.47;45.43;101038.65;1690573;83;21567;-49
2022/03/16 02:27:57;;;;;;;3.08;1.90;;;;;;;3.49;45.34;101039.09;1690560;83;20991;-48
2022/03/16 02:30:26;;;;;;;2.97;2.20;;;;;;;3.48;45.30;101045.17;1670618;83;21826;-48
2022/03/16 02:32:53;;;;;;;2.27;1.85;;;;;;;3.48;45.23;101039.97;1662503;85;21449;-48
2022/03/16 02:35:24;;;;;;;2.90;2.00;;;;;;;3.50;45.11;101041.25;1662638;85;20971;-48
2022/03/16 02:37:52;;;;;;;3.20;2.15;;;;;;;3.49;45.06;101049.94;1662554;85;21488;-48
2022/03/16 02:40:23;;;;;;;3.65;2.10;;;;;;;3.47;44.90;101040.81;1662666;85;21042;-48
2022/03/16 02:42:51;;;;;;;3.77;2.30;;;;;;;3.47;44.92;101042.11;1662394;85;21831;-49
2022/03/16 02:45:18;;;;;;;2.30;1.92;;;;;;;3.46;44.78;101036.89;1662668;85;21046;-48
2022/03/16 02:47:45;;;;;;;3.02;1.92;;;;;;;3.42;44.77;101039.03;1662705;85;21473;-49
2022/03/16 02:50:13;;;;;;;2.25;2.00;;;;;;;3.37;44.68;101040.70;1666985;84;21567;-48
2022/03/16 02:52:41;;;;;;;2.20;1.95;;;;;;;3.38;44.63;101047.23;1690554;84;21519;-48
2022/03/16 02:55:08;;;;;;;3.75;2.52;;;;;;;3.36;44.59;101046.78;1666921;84;21547;-48
2022/03/16 02:57:37;;;;;;;4.55;2.90;;;;;;;3.36;44.69;101051.98;1690675;83;21457;-49
2022/03/16 03:00:07;;;;;;;3.62;2.60;;;;;;;3.30;44.67;101052.80;1690654;83;21519;-49
2022/03/16 03:02:35;;;;;;;3.20;2.47;;;;;;;3.22;44.70;101052.73;1686176;84;21566;-48
2022/03/16 03:05:05;;;;;;;3.47;2.55;;;;;;;3.23;44.68;101049.69;1662544;85;21412;-49
2022/03/16 03:07:32;;;;;;;3.80;2.33;;;;;;;3.21;44.73;101043.61;1662487;85;21749;-49
2022/03/16 03:09:59;;;;;;;2.87;1.80;;;;;;;3.24;44.67;101052.72;1662861;85;21448;-49
2022/03/16 03:12:26;;;;;;;2.70;2.50;;;;;;;3.24;44.67;101052.72;1662887;85;21454;-49
2022/03/16 03:14:52;;;;;;;3.22;2.20;;;;;;;3.27;44.78;101047.56;1662583;85;21551;-48
2022/03/16 03:17:19;;;;;;;2.83;2.20;;;;;;;3.30;44.73;101043.70;1662771;85;21027;-49
2022/03/16 03:19:48;;;;;;;2.50;2.30;;;;;;;3.36;44.66;101046.78;1662695;85;21834;-48
2022/03/16 03:22:15;;;;;;;2.12;1.67;;;;;;;3.40;44.70;101051.14;1662506;85;21444;-48
2022/03/16 03:24:44;;;;;;;3.20;1.72;;;;;;;3.43;44.58;101047.29;1662656;85;21015;-49
2022/03/16 03:27:12;;;;;;;2.83;1.77;;;;;;;3.47;44.66;101046.45;1662595;85;21579;-49
2022/03/16 03:29:38;;;;;;;2.43;1.80;;;;;;;3.44;44.59;101049.88;1662861;85;21019;-49
2022/03/16 03:32:06;;;;;;;4.63;1.60;;;;;;;3.42;44.61;101043.80;1669007;84;21787;-49
2022/03/16 03:34:34;;;;;;;2.70;1.67;;;;;;;3.42;44.52;101046.83;1690577;84;21566;-49
2022/03/16 03:37:01;;;;;;;2.43;1.70;;;;;;;3.41;44.40;101048.97;1690985;84;21488;-48
2022/03/16 03:39:28;;;;;;;2.85;2.00;;;;;;;3.39;44.37;101044.19;1690800;83;21468;-48
2022/03/16 03:41:56;;;;;;;2.17;1.70;;;;;;;3.40;44.38;101048.11;1690510;84;21015;-49
2022/03/16 03:44:23;;;;;;;2.02;1.82;;;;;;;3.39;44.23;101052.88;1690626;83;21878;-49
2022/03/16 03:46:50;;;;;;;2.70;1.90;;;;;;;3.40;44.18;101058.52;1690739;84;21520;-49
2022/03/16 03:49:17;;;;;;;2.60;2.10;;;;;;;3.38;44.28;101054.16;1690652;84;21444;-49
2022/03/16 03:51:44;;;;;;;2.80;1.87;;;;;;;3.41;44.23;101055.06;1690645;83;20976;-49
2022/03/16 03:54:11;;;;;;;2.50;1.50;;;;;;;3.43;44.15;101058.55;1690814;84;21515;-49
2022/03/16 03:56:38;;;;;;;2.65;1.82;;;;;;;3.42;44.06;101061.13;1690898;83;21878;-49
2022/03/16 03:59:05;;;;;;;3.02;2.25;;;;;;;3.39;44.17;101061.09;1690783;84;21472;-50
2022/03/16 04:01:31;;;;;;;5.58;1.90;;;;;;;3.40;44.17;101057.65;1690738;83;21018;-49
2022/03/16 04:04:01;;;;;;;2.10;1.70;;;;;;;3.36;44.15;101060.64;1700840;83;21475;-49
2022/03/16 04:06:28;;;;;;;3.50;2.17;;;;;;;3.34;44.13;101060.20;1711471;83;21034;-49
2022/03/16 04:08:55;;;;;;;3.35;2.10;;;;;;;3.31;44.13;101056.72;1711497;83;21897;-48
2022/03/16 04:11:22;;;;;;;;;;;;;;;3.24;44.19;101056.21;1713798;83;21425;-49
2022/03/16 04:13:49;;;;;;;4.07;2.37;;;;;;;3.22;44.24;101057.03;1711595;83;20430;-48
2022/03/16 04:17:06;;;;;;;3.72;2.27;;;;;;;1.81;48.29;101066.08;1805434;79;23216;-49
2022/03/16 04:19:33;;;;;;;2.30;1.77;;;;;;;2.95;45.00;101059.79;1779012;80;21450;-49
2022/03/16 04:22:00;;;;;;;4.25;2.95;;;;;;;3.06;44.62;101058.17;1778811;80;21747;-49
2022/03/16 04:24:27;;;;;;;4.17;2.58;;;;;;;3.07;44.51;101053.84;1778693;80;21573;-49
2022/03/16 04:26:54;;;;;;;2.87;2.35;;;;;;;3.08;44.50;101059.50;1778842;80;21345;-49
2022/03/16 04:29:21;;;;;;;4.40;2.47;;;;;;;3.05;44.63;101054.26;1778712;80;28458;-49
2022/03/16 04:31:48;;;;;;;4.53;2.75;;;;;;;3.04;44.73;101059.89;1778851;80;21499;-49
2022/03/16 04:34:15;;;;;;;4.15;2.85;;;;;;;3.05;44.80;101054.26;1776603;80;22010;-49
2022/03/16 04:36:42;;;;;;;4.08;3.08;;;;;;;3.07;44.92;101052.14;1747426;80;21491;-49
2022/03/16 04:39:09;;;;;;;;;;;;;;;3.10;44.96;101053.89;1749973;81;21584;-50
2022/03/16 04:41:36;;;;;;;3.50;2.37;;;;;;;3.08;45.19;101050.41;1746338;81;20498;-49
2022/03/16 04:44:04;;;;;;;4.85;2.80;;;;;;;3.09;45.26;101053.02;1747444;81;22117;-49
2022/03/16 04:46:30;;;;;;;3.95;2.70;;;;;;;3.12;45.27;101063.87;1747726;81;21902;-49
2022/03/16 04:48:57;;;;;;;3.75;2.20;;;;;;;3.11;45.38;101063.01;1747444;81;21518;-49
2022/03/16 04:51:23;;;;;;;3.00;2.20;;;;;;;3.19;45.31;101063.08;1747795;81;21444;-49
2022/03/16 04:53:50;;;;;;;3.37;2.37;;;;;;;3.23;45.41;101062.69;1747705;81;21498;-49
2022/03/16 04:56:17;;;;;;;2.95;1.85;;;;;;;3.31;45.46;101066.22;1747699;81;21586;-49
2022/03/16 04:58:44;;;;;;;3.52;2.30;;;;;;;3.32;45.51;101065.38;1747899;81;22157;-49
2022/03/16 05:01:10;;;;;;;2.80;1.97;;;;;;;3.34;45.38;101064.96;1747766;81;20958;-49
2022/03/16 05:03:38;;;;;;;2.65;1.70;;;;;;;3.39;45.42;101064.59;1718705;81;21509;-49
2022/03/16 05:06:05;;;;;;;2.30;1.85;;;;;;;3.42;45.51;101065.03;1747670;80;21553;-49
2022/03/16 05:08:36;;;;;;;1.75;1.60;;;;;;;3.46;45.47;101065.06;1747790;81;21446;-49
2022/03/16 05:11:01;;;;;;;2.67;1.90;;;;;;;3.53;45.56;101066.00;1746511;81;21471;-49
2022/03/16 05:13:28;;;;;;;2.22;1.70;;;;;;;3.54;45.63;101066.86;1747643;81;21495;-49
2022/03/16 05:15:55;;;;;;;3.30;1.77;;;;;;;3.53;45.61;101063.40;1745552;81;21404;-49
2022/03/16 05:18:26;;;;;;;3.05;2.02;;;;;;;3.55;45.85;101077.72;1742631;81;21445;-49
2022/03/16 05:20:53;;;;;;;2.10;1.87;;;;;;;3.59;45.91;101075.59;1742550;81;21443;-49
2022/03/16 05:23:19;;;;;;;2.40;1.75;;;;;;;3.60;45.81;101085.11;1742713;81;21856;-50
2022/03/16 05:25:46;;;;;;;3.75;2.45;;;;;;;3.61;45.88;101081.23;1742699;81;21557;-49
2022/03/16 05:28:13;;;;;;;2.30;1.92;;;;;;;3.65;45.98;101088.63;1742270;81;21418;-47
2022/03/16 05:30:41;;;;;;;2.55;2.00;;;;;;;3.69;46.05;101087.80;1741866;82;21523;-48
2022/03/16 05:33:08;;;;;;;1.72;1.52;;;;;;;3.75;46.10;101083.07;1742159;82;21594;-48
2022/03/16 05:35:34;;;;;;;1.95;1.60;;;;;;;3.82;46.16;101085.73;1742320;80;22059;-49
2022/03/16 05:38:05;;;;;;;2.67;1.80;;;;;;;3.88;46.09;101088.41;1741974;82;21423;-49
2022/03/16 05:40:30;;;;;;;2.10;1.80;;;;;;;3.93;46.06;101086.27;1741726;82;21463;-49
2022/03/16 05:42:57;;;;;;;4.03;2.40;;;;;;;3.93;46.18;101089.73;1741988;82;21605;-49
2022/03/16 05:45:24;;;;;;;3.10;2.07;;;;;;;4.00;46.38;101094.13;1742198;82;21440;-49
2022/03/16 05:47:50;;;;;;;5.15;2.33;;;;;;;4.03;46.31;101094.56;1742219;82;21823;-49
2022/03/16 05:50:17;;;;;;;3.35;1.75;;;;;;;4.05;46.31;101090.23;1742219;82;21550;-49
2022/03/16 05:52:46;;;;;;;3.20;2.35;;;;;;;4.09;46.37;101095.49;1742328;82;20954;-49
2022/03/16 05:55:13;;;;;;;2.80;2.10;;;;;;;4.18;46.46;101091.20;1741908;82;21545;-48
2022/03/16 05:57:41;;;;;;;;;;;;;;;4.23;46.21;101099.92;1744648;82;21582;-48
2022/03/16 06:00:11;;;;;;;4.33;1.90;;;;;;;4.28;46.44;101093.88;1742074;82;21818;-48
2022/03/16 06:02:39;;;;;;;3.45;2.25;;;;;;;4.34;46.21;101094.78;1741994;82;21550;-49
2022/03/16 06:05:07;;;;;;;2.87;1.92;;;;;;;4.39;46.30;101095.66;1742012;82;21412;-49
2022/03/16 06:07:36;;;;;;;4.67;2.30;;;;;;;4.47;46.23;101099.20;1742104;80;21439;-49
2022/03/16 06:10:12;;;;;;;2.40;2.20;;;;;;;4.56;46.08;101102.27;1741921;82;21430;-49
2022/03/16 06:12:55;;;;;;;2.42;2.22;;;;;;;4.62;46.05;101100.58;1741903;80;21554;-49
2022/03/16 06:15:24;;;;;;;3.00;2.20;;;;;;;4.70;45.84;101102.36;1741596;81;21557;-48
2022/03/16 06:17:55;;;;;;;1.85;1.75;;;;;;;4.76;45.55;101102.38;1686900;84;21474;-48
2022/03/16 06:20:23;;;;;;;2.08;1.87;;;;;;;4.81;45.53;101098.92;1733190;82;21498;-49
2022/03/16 06:22:49;;;;;;;11.18;1.92;;;;;;;4.89;45.41;101096.34;1734315;82;21456;-51
2022/03/16 06:25:16;;;;;;;2.40;1.77;;;;;;;4.98;45.32;101098.13;1735028;80;21800;-49
2022/03/16 06:27:43;;;;;;;2.42;2.22;;;;;;;5.01;45.09;101097.70;1764384;80;21049;-49
2022/03/16 06:30:10;;;;;;;4.30;2.23;;;;;;;5.09;45.15;101097.72;1764447;80;21601;-49
2022/03/16 06:32:39;;;;;;;2.98;2.20;;;;;;;5.15;45.11;101108.60;1762767;80;21053;-49
2022/03/16 06:35:07;;;;;;;2.55;2.02;;;;;;;5.25;44.76;101103.42;1764803;80;21444;-49
2022/03/16 06:37:34;;;;;;;3.02;2.45;;;;;;;5.27;44.86;101102.09;1764437;80;21855;-49
2022/03/16 06:40:01;;;;;;;3.62;2.25;;;;;;;5.40;44.57;101106.91;1764713;80;21491;-49
2022/03/16 06:42:28;;;;;;;2.20;2.00;;;;;;;5.48;44.48;101116.05;1764510;80;21579;-49
2022/03/16 06:44:54;;;;;;;2.47;2.10;;;;;;;5.54;44.00;101112.14;1764449;80;21407;-49
2022/03/16 06:47:21;;;;;;;2.60;2.08;;;;;;;5.62;44.01;101119.12;1764794;80;21430;-49
2022/03/16 06:49:47;;;;;;;2.92;2.33;;;;;;;5.71;43.98;101119.58;1764503;80;21906;-49
2022/03/16 06:52:14;;;;;;;3.30;2.30;;;;;;;5.80;43.74;101118.28;1764652;80;21530;-48
2022/03/16 06:54:41;;;;;;;2.80;2.50;;;;;;;5.89;43.75;101125.22;1764542;80;21496;-49
2022/03/16 06:57:08;;;;;;;2.30;2.10;;;;;;;6.01;43.52;101121.80;1762255;80;21562;-49
2022/03/16 06:59:35;;;;;;;2.65;2.15;;;;;;;6.01;43.21;101122.66;1723234;82;20943;-49
2022/03/16 07:02:02;;;;;;;2.62;2.27;;;;;;;6.11;43.14;101128.73;1730525;80;21806;-49
2022/03/16 07:04:30;;;;;;;4.37;2.40;;;;;;;6.17;42.82;101122.19;1698278;84;21500;-50
2022/03/16 07:06:57;;;;;;;3.20;2.47;;;;;;;6.27;42.61;101120.43;1733893;82;21498;-49
2022/03/16 07:09:24;;;;;;;3.77;2.77;;;;;;;6.37;42.28;101127.84;1734246;82;21448;-50
2022/03/16 07:11:52;;;;;;;3.08;2.55;;;;;;;6.40;42.12;101123.48;1734055;82;21455;-49
2022/03/16 07:14:33;;;;;;;2.95;2.65;;;;;;;6.52;42.33;101130.42;1759095;80;21420;-49
2022/03/16 07:17:02;;;;;;;3.52;2.95;;;;;;;6.66;41.59;101133.43;1752877;80;21487;-49
2022/03/16 07:19:30;;;;;;;3.37;3.02;;;;;;;6.80;41.50;101132.96;1733988;82;20983;-49
2022/03/16 07:21:58;;;;;;;7.53;2.57;;;;;;;6.91;40.47;101132.48;1734179;82;21554;-49
2022/03/16 07:24:25;;;;;;;2.10;1.87;;;;;;;7.08;39.87;101130.20;1698472;84;21007;-49
2022/03/16 07:26:55;;;;;;;3.70;2.40;;;;;;;7.24;39.09;101138.87;1734252;82;21801;-49
2022/03/16 07:29:23;;;;;;;2.83;2.33;;;;;;;7.49;38.08;101134.35;1733366;82;21412;-50
2022/03/16 07:31:49;;;;;;;3.20;2.90;;;;;;;7.78;37.98;101131.09;1733946;82;21595;-49
2022/03/16 07:34:16;;;;;;;3.75;3.08;;;;;;;8.83;37.32;101126.16;1741518;80;21179;-49
2022/03/16 07:36:43;;;;;;;5.85;2.85;;;;;;;10.03;35.74;101128.84;1764574;80;20928;-50
2022/03/16 07:39:11;;;;;;;2.83;2.55;;;;;;;11.26;33.60;101122.53;1764546;80;21814;-50
2022/03/16 07:41:38;;;;;;;3.00;1.87;;;;;;;12.27;31.96;101117.48;1764571;80;21479;-50
2022/03/16 07:44:06;;;;;;;2.33;2.12;;;;;;;13.19;29.77;101111.37;1764601;80;20954;-50
2022/03/16 07:46:33;;;;;;;2.50;2.17;;;;;;;13.80;28.24;101111.23;1764602;80;21468;-50
2022/03/16 07:49:00;;;;;;;4.25;2.02;;;;;;;14.31;27.66;101108.20;1764867;80;21436;-50
2022/03/16 07:51:27;;;;;;;2.30;1.72;;;;;;;14.69;26.55;101104.70;1764534;80;21947;-50
2022/03/16 07:53:54;;;;;;;4.03;2.40;;;;;;;15.07;26.07;101108.13;1764903;80;21455;-50
2022/03/16 07:56:21;;;;;;;5.50;2.43;;;;;;;15.43;25.99;101104.99;1764674;80;21519;-50
2022/03/16 07:58:48;;;;;;;3.50;2.43;;;;;;;15.95;25.02;101108.17;1764628;80;21535;-50
2022/03/16 08:01:15;;;;;;;2.42;1.90;;;;;;;16.33;24.34;101107.88;1764709;80;21045;-50
2022/03/16 08:03:41;;;;;;;3.55;2.00;;;;;;;16.79;24.07;101102.78;1764343;80;21837;-50
2022/03/16 08:06:08;;;;;;;3.12;2.15;;;;;;;17.17;23.15;101102.35;1764253;80;21479;-50
2022/03/16 08:08:39;;;;;;;1.98;1.80;;;;;;;17.34;22.92;101103.36;1764471;80;21423;-50
2022/03/16 08:11:04;;;;;;;2.25;1.87;;;;;;;17.74;22.54;101103.59;1764236;80;21443;-50
2022/03/16 08:13:30;;;;;;;1.50;1.40;;;;;;;18.24;21.88;101098.88;1764579;80;21459;-50
2022/03/16 08:15:58;;;;;;;2.35;1.75;;;;;;;18.63;21.51;101105.72;1764613;80;21813;-52
2022/03/16 08:18:24;;;;;;;1.98;1.80;;;;;;;18.74;21.08;101094.95;1764259;80;21527;-50
2022/03/16 08:20:51;;;;;;;2.30;2.10;;;;;;;18.85;20.94;101093.92;1764720;80;21696;-51
2022/03/16 08:23:18;;;;;;;3.45;2.50;;;;;;;19.11;20.95;101101.83;1764407;80;20986;-50
2022/03/16 08:25:47;;;;;;;2.30;1.72;;;;;;;19.47;20.56;101099.85;1764554;80;21441;-51
2022/03/16 08:28:15;;;;;;;2.17;1.98;;;;;;;19.81;20.18;101098.79;1764413;80;22060;-50
2022/03/16 08:30:42;;;;;;;3.00;2.52;;;;;;;20.18;20.31;101088.13;1764371;80;21404;-50
2022/03/16 08:33:09;;;;;;;2.92;2.40;;;;;;;20.41;19.38;101091.22;1764647;80;21022;-50
2022/03/16 08:35:35;;;;;;;2.50;2.10;;;;;;;20.67;19.63;101091.47;1764366;80;21420;-50
2022/03/16 08:38:02;;;;;;;2.80;2.50;;;;;;;20.82;19.26;101089.66;1756952;80;21005;-51
2022/03/16 08:40:29;;;;;;;1.98;1.77;;;;;;;20.74;19.42;101092.81;1733915;82;21878;-51
2022/03/16 08:42:56;;;;;;;2.25;2.00;;;;;;;20.61;19.60;101089.55;1733419;82;21604;-51
2022/03/16 08:45:23;;;;;;;2.87;1.90;;;;;;;20.88;19.54;101088.77;1733342;82;21468;-51
2022/03/16 08:47:50;;;;;;;2.33;1.70;;;;;;;21.26;18.76;101086.79;1733825;82;21498;-50
2022/03/16 08:50:18;;;;;;;1.55;1.37;;;;;;;21.52;18.56;101085.61;1733909;82;21565;-51
2022/03/16 08:52:47;;;;;;;1.37;1.27;;;;;;;21.83;18.15;101087.11;1733911;82;21550;-51
2022/03/16 08:55:15;;;;;;;1.80;1.37;;;;;;;21.75;17.49;101087.59;1733862;82;21439;-51
2022/03/16 08:57:43;;;;;;;1.85;1.40;;;;;;;21.75;16.99;101089.42;1733738;82;21432;-51
2022/03/16 09:00:15;;;;;;;2.22;1.60;;;;;;;21.65;17.16;101089.19;1733878;82;20939;-51
2022/03/16 09:02:43;;;;;;;1.92;1.17;;;;;;;21.71;16.92;101094.13;1734026;82;21427;-52
2022/03/16 09:05:12;;;;;;;1.50;1.37;;;;;;;21.42;16.64;101105.39;1734311;82;21966;-53
2022/03/16 09:07:39;;;;;;;1.67;1.25;;;;;;;21.32;16.27;101097.11;1734017;82;21510;-51
2022/03/16 09:10:08;;;;;;;1.40;1.30;;;;;;;21.36;16.33;101099.97;1736676;80;21420;-54
2022/03/16 09:12:36;;;;;;;1.92;1.60;;;;;;;21.05;16.34;101090.38;1734217;82;21443;-52
2022/03/16 09:15:04;;;;;;;1.77;1.45;;;;;;;20.92;16.77;101091.63;1733759;82;21624;-52
2022/03/16 09:17:33;;;;;;;2.10;1.40;;;;;;;20.85;16.95;101096.12;1737769;82;21774;-51
2022/03/16 09:20:01;;;;;;;1.92;1.15;;;;;;;20.80;17.04;101099.95;1741844;82;21064;-51
2022/03/16 09:22:28;;;;;;;1.52;1.40;;;;;;;20.52;16.83;101102.11;1741918;82;21644;-50
2022/03/16 09:24:58;;;;;;;1.85;1.67;;;;;;;20.36;17.19;101098.19;1741998;82;21451;-52
2022/03/16 09:27:25;;;;;;;2.65;1.92;;;;;;;20.27;17.51;101097.86;1741964;82;21442;-50
2022/03/16 09:29:54;;;;;;;2.00;1.90;;;;;;;20.22;17.86;101094.14;1742261;82;22123;-51
2022/03/16 09:32:22;;;;;;;1.60;1.50;;;;;;;19.91;18.16;101096.44;1741950;82;21542;-50
2022/03/16 09:34:51;;;;;;;2.35;1.92;;;;;;;19.98;18.40;101093.80;1746647;80;21568;-52
2022/03/16 09:37:18;;;;;;;1.90;1.50;;;;;;;20.27;17.80;101095.19;1772615;80;21459;-51
2022/03/16 09:39:45;;;;;;;2.43;1.60;;;;;;;20.55;17.90;101095.25;1773067;80;21439;-52
2022/03/16 09:42:12;;;;;;;1.45;1.30;;;;;;;20.66;17.47;101095.92;1772963;80;21455;-52
2022/03/16 09:44:41;;;;;;;2.30;1.40;;;;;;;19.73;18.21;101098.39;1772578;80;21451;-51
2022/03/16 09:47:09;;;;;;;5.80;2.33;;;;;;;18.94;18.89;101101.91;1772943;80;21443;-51
2022/03/16 09:49:37;;;;;;;1.92;1.80;;;;;;;18.09;19.35;101103.66;1773039;80;21455;-51
2022/03/16 09:52:07;;;;;;;3.30;2.15;;;;;;;17.31;20.38;101109.69;1772817;80;21598;-52
2022/03/16 09:54:34;;;;;;;2.37;2.12;;;;;;;16.61;21.04;101116.41;1772652;80;21570;-51
2022/03/16 09:57:00;;;;;;;1.98;1.80;;;;;;;15.98;21.58;101118.66;1772570;80;21570;-50
2022/03/16 09:59:28;;;;;;;2.80;2.02;;;;;;;15.65;21.48;101112.48;1771399;80;21572;-51
2022/03/16 10:02:04;;;;;;;2.80;1.87;;;;;;;15.21;22.56;101120.39;1749814;80;21435;-52
2022/03/16 10:04:31;;;;;;;2.52;1.65;;;;;;;14.92;22.37;101110.45;1741599;82;21542;-52
2022/03/16 10:07:00;;;;;;;1.67;1.57;;;;;;;14.56;21.98;101124.09;1741856;82;21943;-51
2022/03/16 10:15:11;;;;;;;1.70;1.60;;;;;;;13.94;22.59;101122.70;1741818;82;21656;-50
2022/03/16 10:17:44;;;;;;;2.42;2.20;;;;;;;13.75;22.65;101120.23;1741807;82;20974;-50
2022/03/16 10:20:26;;;;;;;2.20;2.00;;;;;;;13.82;22.83;101116.05;1742159;82;21480;-50
2022/03/16 10:23:12;;;;;;;1.90;1.80;;;;;;;13.88;23.34;101120.27;1741812;82;21424;-50
2022/03/16 10:25:47;;;;;;;2.05;1.87;;;;;;;13.95;23.15;101127.52;1741952;82;20954;-50
2022/03/16 10:28:26;;;;;;;2.37;1.67;;;;;;;13.95;23.57;101123.55;1741099;82;21502;-50
2022/03/16 10:30:56;;;;;;;1.80;1.65;;;;;;;13.90;23.42;101126.36;1759004;80;21473;-52
2022/03/16 10:33:47;;;;;;;2.62;1.70;;;;;;;14.00;22.96;101125.13;1744628;80;21419;-52
2022/03/16 10:36:17;;;;;;;1.70;1.57;;;;;;;13.92;23.17;101124.53;1772810;80;21467;-52
2022/03/16 10:38:47;;;;;;;1.50;1.40;;;;;;;13.90;23.11;101130.33;1765400;80;20959;-52
2022/03/16 10:46:34;;;;;;;1.80;1.70;;;;;;;13.78;22.87;101130.25;1738770;82;21436;-51
2022/03/16 10:46:35;;;;;;;1.50;1.40;;;;;;;14.00;22.71;101125.59;1741824;82;21826;-52
2022/03/16 10:49:09;;;;;;;2.65;1.72;;;;;;;14.14;23.04;101128.62;1741772;82;20966;-51
2022/03/16 10:51:37;;;;;;;2.40;1.80;;;;;;;14.21;22.83;101125.31;1741848;82;21475;-52
2022/03/16 10:54:06;;;;;;;1.92;1.72;;;;;;;14.25;22.98;101128.73;1741985;82;20967;-52
2022/03/16 10:56:32;;;;;;;1.80;1.70;;;;;;;14.25;22.50;101144.13;1741901;82;21107;-52
2022/03/16 10:58:59;;;;;;;2.08;1.80;;;;;;;14.32;22.70;101135.55;1712625;82;22079;-52
2022/03/16 11:01:27;;;;;;;2.20;2.00;;;;;;;14.49;22.62;101135.80;1741792;81;21483;-53
2022/03/16 11:04:01;;;;;;;2.08;1.87;;;;;;;14.70;22.53;101133.34;1742291;81;21427;-52
2022/03/16 11:06:28;;;;;;;3.67;1.57;;;;;;;14.78;22.38;101130.80;1741914;82;21538;-52
2022/03/16 11:08:55;;;;;;;2.00;1.80;;;;;;;14.86;22.46;101137.17;1741825;82;21456;-52
2022/03/16 11:14:08;;;;;;;2.33;2.10;;;;;;;15.18;21.97;101130.66;1762369;80;21468;-52
2022/03/16 11:16:34;;;;;;;;;;;;;;;15.16;22.00;101127.64;1775225;80;21411;-54
2022/03/16 11:19:04;;;;;;;2.22;2.02;;;;;;;15.18;21.96;101128.01;1772836;80;20414;-52
2022/03/16 11:21:45;;;;;;;2.20;2.00;;;;;;;15.22;21.91;101134.05;1772926;80;20956;-52
2022/03/16 11:24:19;;;;;;;2.12;1.67;;;;;;;15.34;21.84;101133.56;1772603;80;21620;-52
2022/03/16 11:27:11;;;;;;;2.85;1.98;;;;;;;15.39;21.69;101137.38;1773049;80;21526;-52
2022/03/16 11:29:59;;;;;;;1.90;1.70;;;;;;;15.41;21.66;101123.60;1772899;80;20998;-51
2022/03/16 11:32:39;;;;;;;1.60;1.50;;;;;;;15.24;21.49;101104.83;1773198;80;21442;-51
2022/03/16 11:35:17;;;;;;;2.05;1.70;;;;;;;15.28;21.32;101126.33;1772983;80;21428;-51
2022/03/16 11:37:49;;;;;;;1.70;1.60;;;;;;;15.23;21.14;101118.54;1772814;80;21795;-51
2022/03/16 11:40:24;;;;;;;1.98;1.55;;;;;;;15.35;21.26;101117.19;1772885;80;21419;-50
2022/03/16 11:43:08;;;;;;;1.67;1.57;;;;;;;15.50;20.84;101114.40;1773034;80;20951;-52
2022/03/16 11:45:54;;;;;;;3.77;1.80;;;;;;;15.43;20.48;101115.59;1744441;80;21400;-53
2022/03/16 11:48:36;;;;;;;1.85;1.50;;;;;;;15.44;21.01;101110.20;1740527;82;21040;-53